MSC Ingrid — HOHA — position and weather

sailwx.info

Track history (hours):
 
Tides and Currents Weather Stations Pressure Air Temp Water Temp Dewpoint Dewpoint Depression Visibility Wind Speed Wind Dir Waves Ship Positions

MSC Ingrid

Last reported at 2016-Aug-24 15:23 UTC. Time now 2016-Aug-24 16:14 UTC.
Position N 40°38' E 022°54'.

Length 294 m; draft 7.7 m.

Type: Ship (hazmat cat A). MMSI: 354505000.

Date/timePositionNaut miles runAvg speedWind from/ knotsBaromVisibWave heightAir tempDewpointWater temp
2016-Aug-24 15:23N 40°38' E 022°54'0 0.0
2016-Aug-24 14:23N 40°38' E 022°54'0 0.0
2016-Aug-24 13:26N 40°38' E 022°54'0 0.0
2016-Aug-24 12:26N 40°38' E 022°54'0 0.0
2016-Aug-24 11:26N 40°38' E 022°54'0 0.0
2016-Aug-24 10:26N 40°38' E 022°54'0 0.0
2016-Aug-24 09:26N 40°38' E 022°54'0 0.0
2016-Aug-24 08:29N 40°38' E 022°54'0 0.0
2016-Aug-24 07:29N 40°38' E 022°54'0 0.0
2016-Aug-24 06:29N 40°38' E 022°54'7 3.5
2016-Aug-24 04:33N 40°32' E 022°50'1413.3
2016-Aug-24 03:33N 40°19' E 022°52'6218.6
2016-Aug-24 00:12N 39°40' E 023°55'1319.5
2016-Aug-23 23:34N 39°35' E 024°10'6218.4
2016-Aug-23 20:11N 38°39' E 024°45'1319.1
2016-Aug-23 19:31N 38°26' E 024°43'3517.8
2016-Aug-23 17:33N 37°53' E 024°30'2319.2
2016-Aug-23 16:22N 37°37' E 024°10'1518.2
2016-Aug-23 15:34N 37°36' E 023°51'1818.5
2016-Aug-23 14:34N 37°51' E 023°36'7 6.5
2016-Aug-23 13:33N 37°57' E 023°35'0 0.0
2016-Aug-23 12:33N 37°57' E 023°35'0 0.0
2016-Aug-23 11:33N 37°57' E 023°35'0 0.0
2016-Aug-23 10:33N 37°57' E 023°35'0 0.0
2016-Aug-23 09:33N 37°57' E 023°35'0 0.0
2016-Aug-23 08:33N 37°57' E 023°35'0 0.0
2016-Aug-23 07:33N 37°57' E 023°35'0 0.0
2016-Aug-23 06:33N 37°57' E 023°35'0 0.0
2016-Aug-23 05:33N 37°57' E 023°35'0 0.0
2016-Aug-23 04:33N 37°57' E 023°35'0 0.0
2016-Aug-23 03:33N 37°57' E 023°35'0 0.0
2016-Aug-23 02:33N 37°57' E 023°35'0 0.0
2016-Aug-23 01:33N 37°57' E 023°35'0 0.0
2016-Aug-23 00:33N 37°57' E 023°35'0 0.0
2016-Aug-22 23:32N 37°57' E 023°35'0 0.0
2016-Aug-22 22:32N 37°57' E 023°35'0 0.0
2016-Aug-22 21:32N 37°57' E 023°35'0 0.0
2016-Aug-22 20:32N 37°57' E 023°35'0 0.2
2016-Aug-22 19:34N 37°57' E 023°35'6 5.9
2016-Aug-22 18:33N 37°52' E 023°39'1010.2
2016-Aug-22 17:33N 37°42' E 023°44'1615.5
2016-Aug-22 16:33N 37°27' E 023°43'1615.8
2016-Aug-22 15:33N 37°11' E 023°39'1515.3
2016-Aug-22 14:33N 36°57' E 023°35'1515.1
2016-Aug-22 13:33N 36°42' E 023°27'2315.3
2016-Aug-22 12:04N 36°23' E 023°13'32215.4
2016-Aug-21 15:07N 37°38' E 016°40'2615.8
2016-Aug-21 13:29N 37°45' E 016°09'1516.3
2016-Aug-21 12:33N 37°49' E 015°51'1414.2
2016-Aug-21 11:33N 37°57' E 015°36'1414.1
2016-Aug-21 10:33N 38°11' E 015°35'1515.0
2016-Aug-21 09:33N 38°23' E 015°46'8 8.0
2016-Aug-21 08:33N 38°28' E 015°55'0 0.0
2016-Aug-21 07:26N 38°28' E 015°55'0 0.0
2016-Aug-21 06:32N 38°28' E 015°55'0 0.0
2016-Aug-21 05:32N 38°28' E 015°55'0 0.0
2016-Aug-21 04:32N 38°28' E 015°55'0 0.0
2016-Aug-21 03:32N 38°28' E 015°55'0 0.0
2016-Aug-21 02:31N 38°28' E 015°55'0 0.0
2016-Aug-21 01:31N 38°28' E 015°55'0 0.0
2016-Aug-21 00:31N 38°28' E 015°55'0 0.0
2016-Aug-20 23:31N 38°28' E 015°55'0 0.0
2016-Aug-20 22:31N 38°28' E 015°55'0 0.0
2016-Aug-20 21:31N 38°28' E 015°55'0 0.0
2016-Aug-20 20:31N 38°28' E 015°55'0 0.0
2016-Aug-20 19:31N 38°28' E 015°55'0 0.0
2016-Aug-20 18:31N 38°28' E 015°55'0 0.0
2016-Aug-20 17:31N 38°28' E 015°55'0 0.0
2016-Aug-20 16:31N 38°28' E 015°55'1 0.7
2016-Aug-20 15:33N 38°27' E 015°54'5 5.3
2016-Aug-20 14:33N 38°26' E 015°48'1312.9
2016-Aug-20 13:33N 38°23' E 015°32'1818.3
2016-Aug-20 12:33N 38°20' E 015°08'1818.1
2016-Aug-20 11:33N 38°20' E 014°45'1918.6
2016-Aug-20 10:34N 38°21' E 014°22'1918.7
2016-Aug-20 09:33N 38°23' E 013°58'1918.6
2016-Aug-20 08:33N 38°24' E 013°34'1818.5
2016-Aug-20 07:33N 38°25' E 013°11'1716.8
2016-Aug-20 06:33N 38°27' E 012°49'1716.2
2016-Aug-20 05:31N 38°28' E 012°28'1616.2
2016-Aug-20 04:33N 38°29' E 012°08'2216.2
2016-Aug-20 03:12N 38°27' E 011°40'1116.5
2016-Aug-20 02:32N 38°25' E 011°27'1616.3
2016-Aug-20 01:33N 38°21' E 011°07'1616.3
2016-Aug-20 00:33N 38°18' E 010°46'1616.5
2016-Aug-19 23:33N 38°14' E 010°26'1616.4
2016-Aug-19 22:33N 38°11' E 010°05'1716.4
2016-Aug-19 21:33N 38°08' E 009°45'1616.2
2016-Aug-19 20:33N 38°04' E 009°25'1616.0
2016-Aug-19 19:33N 38°01' E 009°05'8416.8
2016-Aug-19 14:32N 37°45' E 007°20'2418.6
2016-Aug-19 13:15N 37°40' E 006°50'1318.7
2016-Aug-19 12:32N 37°38' E 006°34'16417.8
2016-Aug-19 03:19N 37°10' E 003°10'1317.6
2016-Aug-19 02:33N 37°06' E 002°54'1818.0
2016-Aug-19 01:33N 37°03' E 002°31'2017.8
2016-Aug-19 00:24N 36°59' E 002°07'1517.3
2016-Aug-18 23:33N 36°56' E 001°49'1817.6
2016-Aug-18 22:33N 36°53' E 001°27'1818.2
2016-Aug-18 21:33N 36°51' E 001°04'1918.4
2016-Aug-18 20:33N 36°47' E 000°42'1919.2
2016-Aug-18 19:33N 36°42' E 000°18'1918.8
2016-Aug-18 18:32N 36°40' W 000°05'1818.4
2016-Aug-18 17:33N 36°37' W 000°28'1817.9
2016-Aug-18 16:34N 36°34' W 000°49'1817.7
2016-Aug-18 15:34N 36°31' W 001°11'1818.0
2016-Aug-18 14:34N 36°27' W 001°33'1817.7
2016-Aug-18 13:33N 36°24' W 001°55'1817.6
2016-Aug-18 12:34N 36°21' W 002°16'1717.2
2016-Aug-18 11:34N 36°18' W 002°37'1717.4
2016-Aug-18 10:33N 36°15' W 002°59'1817.7
2016-Aug-18 09:33N 36°13' W 003°20'1818.0
2016-Aug-18 08:33N 36°09' W 003°42'7819.4
2016-Aug-18 04:33N 35°58' W 005°17'1818.3
2016-Aug-18 03:33N 35°55' W 005°39'8717.3
2016-Aug-17 22:33N 36°09' W 007°25'1817.8
2016-Aug-17 21:33N 36°14' W 007°46'1817.8
2016-Aug-17 20:33N 36°19' W 008°08'1717.5
2016-Aug-17 19:33N 36°23' W 008°29'1717.5
2016-Aug-17 18:33N 36°27' W 008°50'1817.6
2016-Aug-17 17:33N 36°32' W 009°11'1817.5
2016-Aug-17 16:33N 36°42' W 009°28'1716.9
2016-Aug-17 15:32N 36°58' W 009°36'1917.6
2016-Aug-17 14:27N 37°17' W 009°42'1617.7
2016-Aug-17 13:33N 37°32' W 009°46'1917.9
2016-Aug-17 12:30N 37°51' W 009°52'1717.8
2016-Aug-17 11:33N 38°07' W 009°57'1817.9
2016-Aug-17 10:33N 38°24' W 010°02'1817.8
2016-Aug-17 09:33N 38°42' W 010°07'1817.5
2016-Aug-17 08:33N 38°59' W 010°08'1818.1
2016-Aug-17 07:33N 39°18' W 010°08'1818.0
2016-Aug-17 06:33N 39°36' W 010°08'47617.6
2016-Aug-16 03:33N 47°14' W 007°08'1818.4
2016-Aug-16 02:33N 47°30' W 006°55'2018.3
2016-Aug-16 01:29N 47°47' W 006°41'5918.0
2016-Aug-15 22:10N 48°40' W 006°01'1218.7
2016-Aug-15 21:33N 48°50' W 005°53'1919.2
2016-Aug-15 20:33N 49°02' W 005°30'2019.7
2016-Aug-15 19:33N 49°12' W 005°03'2019.6
2016-Aug-15 18:33N 49°22' W 004°37'1918.9
2016-Aug-15 17:33N 49°31' W 004°12'1818.2
2016-Aug-15 16:33N 49°40' W 003°47'1817.9
2016-Aug-15 15:33N 49°48' W 003°23'1818.2
2016-Aug-15 14:34N 49°57' W 002°58'1919.2
2016-Aug-15 13:33N 50°02' W 002°30'1818.2
2016-Aug-15 12:33N 50°08' W 002°02'1917.9
2016-Aug-15 11:31N 50°12' W 001°34'1617.2
2016-Aug-15 10:33N 50°17' W 001°10'2216.3
2016-Aug-15 09:11N 50°23' W 000°36'1015.3
2016-Aug-15 08:33N 50°26' W 000°21'1514.5
2016-Aug-15 07:33N 50°30' E 000°00'1414.1
2016-Aug-15 06:32N 50°34' E 000°22'3114.7
2016-Aug-15 04:26N 50°50' E 001°03'1516.8
2016-Aug-15 03:33N 51°01' E 001°20'1716.8
2016-Aug-15 02:33N 51°11' E 001°41'1515.4
2016-Aug-15 01:33N 51°23' E 001°56'1313.2
2016-Aug-15 00:33N 51°20' E 002°17'1514.3
2016-Aug-14 23:31N 51°23' E 002°40'1313.5
2016-Aug-14 22:34N 51°24' E 003°01'1212.5
2016-Aug-14 21:33N 51°25' E 003°21'1211.7
2016-Aug-14 20:34N 51°26' E 003°40'1110.9
2016-Aug-14 19:33N 51°23' E 003°56'8 8.3
2016-Aug-14 18:33N 51°23' E 004°09'5 5.4
2016-Aug-14 17:34N 51°21' E 004°17'2 1.7
2016-Aug-14 16:33N 51°19' E 004°19'1 0.7
2016-Aug-14 15:32N 51°19' E 004°20'  
Track history (hours):
 
Tides and Currents Weather Stations Pressure Air Temp Water Temp Dewpoint Dewpoint Depression Visibility Wind Speed Wind Dir Waves Ship Positions

MSC Ingrid

Last reported at 2016-Aug-24 15:23 UTC. Time now 2016-Aug-24 16:14 UTC.
Position N 40°38' E 022°54'.

Length 294 m; draft 7.7 m.

Type: Ship (hazmat cat A). MMSI: 354505000.

Date/timePositionNaut miles runAvg speedWind from/ knotsBaromVisibWave heightAir tempDewpointWater temp
2016-Aug-24 15:23N 40°38' E 022°54'0 0.0
2016-Aug-24 14:23N 40°38' E 022°54'0 0.0
2016-Aug-24 13:26N 40°38' E 022°54'0 0.0
2016-Aug-24 12:26N 40°38' E 022°54'0 0.0
2016-Aug-24 11:26N 40°38' E 022°54'0 0.0
2016-Aug-24 10:26N 40°38' E 022°54'0 0.0
2016-Aug-24 09:26N 40°38' E 022°54'0 0.0
2016-Aug-24 08:29N 40°38' E 022°54'0 0.0
2016-Aug-24 07:29N 40°38' E 022°54'0 0.0
2016-Aug-24 06:29N 40°38' E 022°54'7 3.5
2016-Aug-24 04:33N 40°32' E 022°50'1413.3
2016-Aug-24 03:33N 40°19' E 022°52'6218.6
2016-Aug-24 00:12N 39°40' E 023°55'1319.5
2016-Aug-23 23:34N 39°35' E 024°10'6218.4
2016-Aug-23 20:11N 38°39' E 024°45'1319.1
2016-Aug-23 19:31N 38°26' E 024°43'3517.8
2016-Aug-23 17:33N 37°53' E 024°30'2319.2
2016-Aug-23 16:22N 37°37' E 024°10'1518.2
2016-Aug-23 15:34N 37°36' E 023°51'1818.5
2016-Aug-23 14:34N 37°51' E 023°36'7 6.5
2016-Aug-23 13:33N 37°57' E 023°35'0 0.0
2016-Aug-23 12:33N 37°57' E 023°35'0 0.0
2016-Aug-23 11:33N 37°57' E 023°35'0 0.0
2016-Aug-23 10:33N 37°57' E 023°35'0 0.0
2016-Aug-23 09:33N 37°57' E 023°35'0 0.0
2016-Aug-23 08:33N 37°57' E 023°35'0 0.0
2016-Aug-23 07:33N 37°57' E 023°35'0 0.0
2016-Aug-23 06:33N 37°57' E 023°35'0 0.0
2016-Aug-23 05:33N 37°57' E 023°35'0 0.0
2016-Aug-23 04:33N 37°57' E 023°35'0 0.0
2016-Aug-23 03:33N 37°57' E 023°35'0 0.0
2016-Aug-23 02:33N 37°57' E 023°35'0 0.0
2016-Aug-23 01:33N 37°57' E 023°35'0 0.0
2016-Aug-23 00:33N 37°57' E 023°35'0 0.0
2016-Aug-22 23:32N 37°57' E 023°35'0 0.0
2016-Aug-22 22:32N 37°57' E 023°35'0 0.0
2016-Aug-22 21:32N 37°57' E 023°35'0 0.0
2016-Aug-22 20:32N 37°57' E 023°35'0 0.2
2016-Aug-22 19:34N 37°57' E 023°35'6 5.9
2016-Aug-22 18:33N 37°52' E 023°39'1010.2
2016-Aug-22 17:33N 37°42' E 023°44'1615.5
2016-Aug-22 16:33N 37°27' E 023°43'1615.8
2016-Aug-22 15:33N 37°11' E 023°39'1515.3
2016-Aug-22 14:33N 36°57' E 023°35'1515.1
2016-Aug-22 13:33N 36°42' E 023°27'2315.3
2016-Aug-22 12:04N 36°23' E 023°13'32215.4
2016-Aug-21 15:07N 37°38' E 016°40'2615.8
2016-Aug-21 13:29N 37°45' E 016°09'1516.3
2016-Aug-21 12:33N 37°49' E 015°51'1414.2
2016-Aug-21 11:33N 37°57' E 015°36'1414.1
2016-Aug-21 10:33N 38°11' E 015°35'1515.0
2016-Aug-21 09:33N 38°23' E 015°46'8 8.0
2016-Aug-21 08:33N 38°28' E 015°55'0 0.0
2016-Aug-21 07:26N 38°28' E 015°55'0 0.0
2016-Aug-21 06:32N 38°28' E 015°55'0 0.0
2016-Aug-21 05:32N 38°28' E 015°55'0 0.0
2016-Aug-21 04:32N 38°28' E 015°55'0 0.0
2016-Aug-21 03:32N 38°28' E 015°55'0 0.0
2016-Aug-21 02:31N 38°28' E 015°55'0 0.0
2016-Aug-21 01:31N 38°28' E 015°55'0 0.0
2016-Aug-21 00:31N 38°28' E 015°55'0 0.0
2016-Aug-20 23:31N 38°28' E 015°55'0 0.0
2016-Aug-20 22:31N 38°28' E 015°55'0 0.0
2016-Aug-20 21:31N 38°28' E 015°55'0 0.0
2016-Aug-20 20:31N 38°28' E 015°55'0 0.0
2016-Aug-20 19:31N 38°28' E 015°55'0 0.0
2016-Aug-20 18:31N 38°28' E 015°55'0 0.0
2016-Aug-20 17:31N 38°28' E 015°55'0 0.0
2016-Aug-20 16:31N 38°28' E 015°55'1 0.7
2016-Aug-20 15:33N 38°27' E 015°54'5 5.3
2016-Aug-20 14:33N 38°26' E 015°48'1312.9
2016-Aug-20 13:33N 38°23' E 015°32'1818.3
2016-Aug-20 12:33N 38°20' E 015°08'1818.1
2016-Aug-20 11:33N 38°20' E 014°45'1918.6
2016-Aug-20 10:34N 38°21' E 014°22'1918.7
2016-Aug-20 09:33N 38°23' E 013°58'1918.6
2016-Aug-20 08:33N 38°24' E 013°34'1818.5
2016-Aug-20 07:33N 38°25' E 013°11'1716.8
2016-Aug-20 06:33N 38°27' E 012°49'1716.2
2016-Aug-20 05:31N 38°28' E 012°28'1616.2
2016-Aug-20 04:33N 38°29' E 012°08'2216.2
2016-Aug-20 03:12N 38°27' E 011°40'1116.5
2016-Aug-20 02:32N 38°25' E 011°27'1616.3
2016-Aug-20 01:33N 38°21' E 011°07'1616.3
2016-Aug-20 00:33N 38°18' E 010°46'1616.5
2016-Aug-19 23:33N 38°14' E 010°26'1616.4
2016-Aug-19 22:33N 38°11' E 010°05'1716.4
2016-Aug-19 21:33N 38°08' E 009°45'1616.2
2016-Aug-19 20:33N 38°04' E 009°25'1616.0
2016-Aug-19 19:33N 38°01' E 009°05'8416.8
2016-Aug-19 14:32N 37°45' E 007°20'2418.6
2016-Aug-19 13:15N 37°40' E 006°50'1318.7
2016-Aug-19 12:32N 37°38' E 006°34'16417.8
2016-Aug-19 03:19N 37°10' E 003°10'1317.6
2016-Aug-19 02:33N 37°06' E 002°54'1818.0
2016-Aug-19 01:33N 37°03' E 002°31'2017.8
2016-Aug-19 00:24N 36°59' E 002°07'1517.3
2016-Aug-18 23:33N 36°56' E 001°49'1817.6
2016-Aug-18 22:33N 36°53' E 001°27'1818.2
2016-Aug-18 21:33N 36°51' E 001°04'1918.4
2016-Aug-18 20:33N 36°47' E 000°42'1919.2
2016-Aug-18 19:33N 36°42' E 000°18'1918.8
2016-Aug-18 18:32N 36°40' W 000°05'1818.4
2016-Aug-18 17:33N 36°37' W 000°28'1817.9
2016-Aug-18 16:34N 36°34' W 000°49'1817.7
2016-Aug-18 15:34N 36°31' W 001°11'1818.0
2016-Aug-18 14:34N 36°27' W 001°33'1817.7
2016-Aug-18 13:33N 36°24' W 001°55'1817.6
2016-Aug-18 12:34N 36°21' W 002°16'1717.2
2016-Aug-18 11:34N 36°18' W 002°37'1717.4
2016-Aug-18 10:33N 36°15' W 002°59'1817.7
2016-Aug-18 09:33N 36°13' W 003°20'1818.0
2016-Aug-18 08:33N 36°09' W 003°42'7819.4
2016-Aug-18 04:33N 35°58' W 005°17'1818.3
2016-Aug-18 03:33N 35°55' W 005°39'8717.3
2016-Aug-17 22:33N 36°09' W 007°25'1817.8
2016-Aug-17 21:33N 36°14' W 007°46'1817.8
2016-Aug-17 20:33N 36°19' W 008°08'1717.5
2016-Aug-17 19:33N 36°23' W 008°29'1717.5
2016-Aug-17 18:33N 36°27' W 008°50'1817.6
2016-Aug-17 17:33N 36°32' W 009°11'1817.5
2016-Aug-17 16:33N 36°42' W 009°28'1716.9
2016-Aug-17 15:32N 36°58' W 009°36'1917.6
2016-Aug-17 14:27N 37°17' W 009°42'1617.7
2016-Aug-17 13:33N 37°32' W 009°46'1917.9
2016-Aug-17 12:30N 37°51' W 009°52'1717.8
2016-Aug-17 11:33N 38°07' W 009°57'1817.9
2016-Aug-17 10:33N 38°24' W 010°02'1817.8
2016-Aug-17 09:33N 38°42' W 010°07'1817.5
2016-Aug-17 08:33N 38°59' W 010°08'1818.1
2016-Aug-17 07:33N 39°18' W 010°08'1818.0
2016-Aug-17 06:33N 39°36' W 010°08'47617.6
2016-Aug-16 03:33N 47°14' W 007°08'1818.4
2016-Aug-16 02:33N 47°30' W 006°55'2018.3
2016-Aug-16 01:29N 47°47' W 006°41'5918.0
2016-Aug-15 22:10N 48°40' W 006°01'1218.7
2016-Aug-15 21:33N 48°50' W 005°53'1919.2
2016-Aug-15 20:33N 49°02' W 005°30'2019.7
2016-Aug-15 19:33N 49°12' W 005°03'2019.6
2016-Aug-15 18:33N 49°22' W 004°37'1918.9
2016-Aug-15 17:33N 49°31' W 004°12'1818.2
2016-Aug-15 16:33N 49°40' W 003°47'1817.9
2016-Aug-15 15:33N 49°48' W 003°23'1818.2
2016-Aug-15 14:34N 49°57' W 002°58'1919.2
2016-Aug-15 13:33N 50°02' W 002°30'1818.2
2016-Aug-15 12:33N 50°08' W 002°02'1917.9
2016-Aug-15 11:31N 50°12' W 001°34'1617.2
2016-Aug-15 10:33N 50°17' W 001°10'2216.3
2016-Aug-15 09:11N 50°23' W 000°36'1015.3
2016-Aug-15 08:33N 50°26' W 000°21'1514.5
2016-Aug-15 07:33N 50°30' E 000°00'1414.1
2016-Aug-15 06:32N 50°34' E 000°22'3114.7
2016-Aug-15 04:26N 50°50' E 001°03'1516.8
2016-Aug-15 03:33N 51°01' E 001°20'1716.8
2016-Aug-15 02:33N 51°11' E 001°41'1515.4
2016-Aug-15 01:33N 51°23' E 001°56'1313.2
2016-Aug-15 00:33N 51°20' E 002°17'1514.3
2016-Aug-14 23:31N 51°23' E 002°40'1313.5
2016-Aug-14 22:34N 51°24' E 003°01'1212.5
2016-Aug-14 21:33N 51°25' E 003°21'1211.7
2016-Aug-14 20:34N 51°26' E 003°40'1110.9
2016-Aug-14 19:33N 51°23' E 003°56'8 8.3
2016-Aug-14 18:33N 51°23' E 004°09'5 5.4
2016-Aug-14 17:34N 51°21' E 004°17'2 1.7
2016-Aug-14 16:33N 51°19' E 004°19'1 0.7
2016-Aug-14 15:32N 51°19' E 004°20'  

Dump ship's entire track history